Terminal Aerodrome Forecast
Issued by NWS

Current Version | Previous Version | Text Only | Print | Product List | Glossary Off
Versions: 1 2 3 4 5 6 7 8 9 10 11 12 13 14 15 16

000
FTUS41 KILN 291700
TAFLCK
TAF
KLCK 291733Z 2918/3018 27012G20KT P6SM SCT045
     FM292000 29010KT P6SM OVC040
     FM300300 30004KT P6SM OVC035
     FM301300 29003KT P6SM SCT035=

USA.gov is the U.S. government's official web portal to all federal, state and local government web resources and services.